Time;durP1;ratioP1;P1;durP2;ratioP2;P2;SDS_P1;SDS_P2;PMS_P1;PMS_P2;Temp;Humidity;BMP_temperature;BMP_pressure;BME280_temperature;BME280_humidity;BME280_pressure;Samples;Min_cycle;Max_cycle;Signal;HPM_P1;HPM_P2
2021/07/14 00:00:15;;;;;;;4.10;0.85;;;17.30;84.60;;;;;;6247495;23;20024;-77
2021/07/14 00:02:42;;;;;;;1.55;0.90;;;17.40;84.50;;;;;;6223364;23;20092;-78
2021/07/14 00:05:13;;;;;;;1.92;0.82;;;17.50;84.20;;;;;;6254253;23;20012;-78
2021/07/14 00:07:41;;;;;;;3.70;0.70;;;17.50;84.30;;;;;;6254456;23;20024;-77
2021/07/14 00:10:11;;;;;;;2.88;0.80;;;17.50;84.60;;;;;;6252104;23;20019;-77
2021/07/14 00:12:47;;;;;;;2.33;1.00;;;17.50;84.70;;;;;;6225593;23;20242;-77
2021/07/14 00:23:25;;;;;;;1.10;0.73;;;17.40;84.60;;;;;;6252825;23;20224;-77
2021/07/14 00:25:52;;;;;;;1.52;0.60;;;17.40;84.30;;;;;;6251229;23;20331;-77
2021/07/14 00:28:22;;;;;;;7.10;1.10;;;17.30;84.90;;;;;;6221424;23;20032;-78
2021/07/14 00:30:52;;;;;;;2.42;0.65;;;17.40;85.10;;;;;;6250433;23;20024;-77
2021/07/14 00:33:20;;;;;;;4.30;0.82;;;17.30;86.10;;;;;;6248702;23;20072;-77
2021/07/14 00:35:47;;;;;;;6.32;1.35;;;17.20;86.20;;;;;;6219071;23;20036;-77
2021/07/14 00:38:14;;;;;;;4.10;0.90;;;17.30;85.90;;;;;;6246073;23;20024;-78
2021/07/14 00:40:42;;;;;;;5.38;0.85;;;17.20;86.00;;;;;;6247856;23;20023;-77
2021/07/14 00:43:09;;;;;;;3.45;0.77;;;17.30;85.60;;;;;;6224498;23;20036;-77
2021/07/14 00:45:38;;;;;;;1.77;0.73;;;17.20;85.70;;;;;;6225735;23;20070;-77
2021/07/14 00:48:06;;;;;;;2.90;0.90;;;17.20;85.80;;;;;;6249181;23;20024;-77
2021/07/14 00:50:34;;;;;;;2.85;0.93;;;17.30;86.00;;;;;;6251506;23;20020;-77
2021/07/14 00:53:01;;;;;;;2.72;0.75;;;17.40;85.60;;;;;;6248887;23;20024;-78
2021/07/14 00:55:30;;;;;;;2.55;0.88;;;17.40;85.50;;;;;;6222101;23;20024;-77
2021/07/14 00:57:58;;;;;;;3.30;0.85;;;17.50;85.10;;;;;;6249983;23;20023;-77
2021/07/14 01:00:25;;;;;;;2.20;0.70;;;17.50;84.90;;;;;;6244638;23;20032;-77
2021/07/14 01:02:53;;;;;;;1.08;0.68;;;17.50;84.80;;;;;;6248529;23;20023;-77
2021/07/14 01:05:25;;;;;;;2.45;1.10;;;17.50;85.50;;;;;;6249203;23;20070;-77
2021/07/14 01:07:57;;;;;;;1.45;0.90;;;17.30;85.10;;;;;;6248934;23;20027;-77
2021/07/14 01:10:30;;;;;;;1.65;0.80;;;17.30;85.70;;;;;;6249193;23;20308;-77
2021/07/14 01:13:03;;;;;;;8.52;1.00;;;17.20;85.80;;;;;;6256175;23;20022;-78
2021/07/14 01:15:37;;;;;;;1.95;0.98;;;17.20;85.60;;;;;;6226560;23;20103;-77
2021/07/14 01:18:14;;;;;;;0.82;0.60;;;17.20;85.70;;;;;;6249932;23;20123;-77
2021/07/14 01:20:54;;;;;;;1.20;0.68;;;17.30;86.10;;;;;;6251922;23;20130;-77
2021/07/14 01:23:35;;;;;;;5.70;1.10;;;17.30;86.10;;;;;;6251494;23;20019;-77
2021/07/14 01:26:17;;;;;;;1.02;0.63;;;17.40;85.90;;;;;;6218748;23;20051;-76
2021/07/14 01:28:52;;;;;;;1.50;0.90;;;17.30;85.50;;;;;;6222461;23;20067;-77
2021/07/14 01:31:23;;;;;;;3.03;0.80;;;17.30;85.50;;;;;;6219203;23;20025;-77
2021/07/14 01:33:57;;;;;;;1.20;0.77;;;17.20;85.30;;;;;;6245346;22;20029;-77
2021/07/14 01:36:28;;;;;;;2.50;0.90;;;17.20;85.20;;;;;;6220319;23;20031;-77
2021/07/14 01:38:56;;;;;;;1.58;0.77;;;17.20;85.30;;;;;;6224576;23;20197;-77
2021/07/14 01:41:27;;;;;;;2.78;0.95;;;17.20;85.30;;;;;;6221490;23;20020;-77
2021/07/14 01:44:00;;;;;;;2.10;1.10;;;17.10;85.80;;;;;;6222513;23;20039;-77
2021/07/14 01:46:34;;;;;;;2.97;0.98;;;17.10;85.90;;;;;;6222356;23;20025;-77
2021/07/14 01:49:04;;;;;;;1.63;0.73;;;17.20;85.90;;;;;;6222973;23;20031;-78
2021/07/14 01:51:32;;;;;;;;;;;17.20;85.90;;;;;;6249728;22;20059;-77
2021/07/14 01:54:04;;;;;;;4.97;0.88;;;17.30;85.80;;;;;;6223620;23;19928;-77
2021/07/14 01:56:34;;;;;;;1.80;1.00;;;17.20;85.80;;;;;;6222234;23;20044;-77
2021/07/14 01:59:02;;;;;;;;;;;17.10;85.90;;;;;;6221787;23;20088;-77
2021/07/14 02:01:31;;;;;;;3.70;0.93;;;17.20;86.00;;;;;;6242443;23;19944;-77
2021/07/14 02:06:48;;;;;;;1.88;0.90;;;17.10;86.30;;;;;;6222136;23;20039;-77
2021/07/14 02:09:16;;;;;;;1.50;0.82;;;17.10;86.20;;;;;;6220628;23;20024;-77
2021/07/14 02:11:46;;;;;;;1.83;1.05;;;17.10;86.20;;;;;;6220722;23;20041;-77
2021/07/14 02:14:18;;;;;;;2.55;1.10;;;17.10;86.40;;;;;;6218814;23;20020;-77
2021/07/14 02:16:47;;;;;;;1.77;1.05;;;17.10;86.20;;;;;;6218553;23;20036;-77
2021/07/14 02:19:17;;;;;;;3.55;1.00;;;17.10;86.30;;;;;;6220552;23;20024;-77
2021/07/14 02:21:45;;;;;;;2.67;0.95;;;17.10;86.40;;;;;;6219211;23;20029;-77
2021/07/14 02:24:14;;;;;;;2.40;0.88;;;17.00;86.30;;;;;;6219293;23;20032;-77
2021/07/14 02:26:43;;;;;;;1.35;0.88;;;17.10;86.30;;;;;;6222464;23;20334;-78
2021/07/14 02:29:11;;;;;;;1.98;1.20;;;17.00;86.50;;;;;;6220282;23;20020;-78
2021/07/14 02:31:39;;;;;;;1.77;0.82;;;17.00;86.40;;;;;;6216732;23;20024;-77
2021/07/14 02:34:09;;;;;;;2.80;1.30;;;16.90;86.90;;;;;;6244929;22;20028;-78
2021/07/14 02:36:37;;;;;;;4.70;0.98;;;17.00;86.80;;;;;;6217911;23;20025;-78
2021/07/14 02:39:07;;;;;;;3.50;1.05;;;17.00;86.50;;;;;;6218365;23;20016;-78
2021/07/14 02:41:41;;;;;;;2.20;1.00;;;17.10;86.70;;;;;;6218911;23;20028;-77
2021/07/14 02:44:11;;;;;;;2.05;0.90;;;17.10;86.70;;;;;;6219694;23;20076;-77
2021/07/14 02:46:42;;;;;;;;;;;17.10;86.70;;;;;;6222554;23;20032;-77
2021/07/14 02:49:12;;;;;;;2.20;1.05;;;17.10;86.70;;;;;;6217504;23;19943;-77
2021/07/14 02:51:40;;;;;;;;;;;17.10;86.10;;;;;;6219694;23;20036;-77
2021/07/14 02:54:16;;;;;;;2.30;1.10;;;17.10;85.80;;;;;;6216775;23;20131;-77
2021/07/14 02:56:44;;;;;;;2.38;1.15;;;17.10;86.10;;;;;;6217150;23;20238;-77
2021/07/14 02:59:12;;;;;;;1.98;1.05;;;17.10;85.60;;;;;;6221609;23;20040;-77
2021/07/14 03:01:43;;;;;;;2.92;1.27;;;17.10;85.60;;;;;;6214207;23;20040;-77
2021/07/14 03:04:11;;;;;;;3.25;1.10;;;17.10;85.50;;;;;;6220291;23;20035;-77
2021/07/14 03:06:39;;;;;;;3.65;1.33;;;17.10;85.50;;;;;;6220101;23;20024;-77
2021/07/14 03:09:08;;;;;;;2.35;1.20;;;17.10;85.50;;;;;;6223010;23;20090;-77
2021/07/14 03:11:39;;;;;;;3.97;0.93;;;17.10;85.60;;;;;;6221933;23;20252;-77
2021/07/14 03:14:07;;;;;;;3.35;1.40;;;17.10;85.50;;;;;;6219135;23;20016;-77
2021/07/14 03:16:34;;;;;;;6.15;1.42;;;17.10;85.40;;;;;;6249571;22;20092;-77
2021/07/14 03:19:05;;;;;;;2.58;1.20;;;17.10;85.70;;;;;;6225561;23;20024;-77
2021/07/14 03:21:36;;;;;;;2.90;1.20;;;17.00;85.80;;;;;;6225078;23;20028;-78
2021/07/14 03:24:08;;;;;;;2.35;1.08;;;17.00;86.00;;;;;;6225753;23;20024;-77
2021/07/14 03:26:37;;;;;;;2.47;1.15;;;17.10;86.00;;;;;;6224889;23;20028;-78
2021/07/14 03:29:06;;;;;;;4.80;1.30;;;17.00;85.70;;;;;;6224495;23;20051;-78
2021/07/14 03:31:40;;;;;;;2.90;1.20;;;17.00;86.20;;;;;;6225749;23;20025;-77
2021/07/14 03:34:08;;;;;;;3.00;1.08;;;16.90;86.30;;;;;;6225689;23;20028;-77
2021/07/14 03:36:36;;;;;;;2.90;1.30;;;16.90;86.10;;;;;;6222736;23;20073;-77
2021/07/14 03:39:05;;;;;;;4.32;1.55;;;16.90;86.40;;;;;;6223352;23;20355;-78
2021/07/14 03:41:38;;;;;;;4.45;1.45;;;17.00;86.30;;;;;;6224552;23;20040;-77
2021/07/14 03:44:06;;;;;;;2.95;1.55;;;17.00;86.10;;;;;;6224219;23;20020;-78
2021/07/14 03:46:34;;;;;;;3.10;1.13;;;17.00;86.10;;;;;;6225044;23;20028;-77
2021/07/14 03:49:02;;;;;;;2.72;1.30;;;16.90;86.20;;;;;;6222093;23;20250;-78
2021/07/14 03:51:31;;;;;;;3.60;1.38;;;16.90;86.10;;;;;;6226058;23;20346;-77
2021/07/14 03:54:00;;;;;;;2.03;1.10;;;16.90;86.10;;;;;;6223128;23;20035;-77
2021/07/14 03:56:29;;;;;;;7.15;2.55;;;16.90;85.90;;;;;;6222422;23;20339;-78
2021/07/14 03:58:58;;;;;;;2.35;1.20;;;16.90;86.00;;;;;;6223776;23;20088;-77
2021/07/14 04:01:25;;;;;;;4.47;1.50;;;16.80;85.60;;;;;;6217863;23;20025;-78
2021/07/14 04:03:54;;;;;;;4.00;1.58;;;16.90;85.60;;;;;;6224522;23;20028;-77
2021/07/14 04:06:22;;;;;;;8.30;1.75;;;16.90;85.90;;;;;;6222665;23;20013;-78
2021/07/14 04:09:19;;;;;;;4.65;1.48;;;17.00;85.50;;;;;;6222760;23;20028;-77
2021/07/14 04:11:49;;;;;;;7.30;1.50;;;16.90;84.80;;;;;;6219830;23;20035;-78
2021/07/14 04:14:17;;;;;;;2.45;1.50;;;16.90;84.90;;;;;;6221581;23;20040;-77
2021/07/14 04:16:44;;;;;;;3.60;1.48;;;16.90;85.10;;;;;;6220499;23;20024;-77
2021/07/14 04:19:11;;;;;;;4.10;1.45;;;17.00;85.00;;;;;;6218897;23;20033;-77
2021/07/14 04:21:38;;;;;;;2.53;1.35;;;17.10;84.80;;;;;;6225579;23;20024;-78
2021/07/14 04:24:07;;;;;;;2.22;1.20;;;17.00;85.00;;;;;;6246941;22;20028;-77
2021/07/14 04:26:35;;;;;;;2.58;1.45;;;17.00;85.10;;;;;;6219928;23;20020;-77
2021/07/14 04:29:03;;;;;;;3.00;1.45;;;17.10;84.80;;;;;;6220833;23;20288;-78
2021/07/14 04:31:31;;;;;;;3.55;1.67;;;17.00;84.80;;;;;;6219495;23;20029;-77
2021/07/14 04:33:58;;;;;;;4.25;1.35;;;16.90;84.90;;;;;;6221177;23;20020;-77
2021/07/14 04:36:25;;;;;;;3.35;1.40;;;16.90;85.20;;;;;;6220394;23;20032;-77
2021/07/14 04:38:53;;;;;;;3.25;1.30;;;17.00;85.10;;;;;;6222935;23;20025;-78
2021/07/14 04:41:21;;;;;;;3.03;1.60;;;17.00;84.60;;;;;;6221219;23;20044;-78
2021/07/14 04:43:49;;;;;;;2.75;1.38;;;17.10;84.50;;;;;;6243908;23;20139;-77
2021/07/14 04:46:16;;;;;;;3.63;1.95;;;17.10;84.70;;;;;;6221747;23;20055;-78
2021/07/14 04:48:43;;;;;;;2.72;1.38;;;17.10;85.00;;;;;;6219943;23;20316;-78
2021/07/14 04:51:11;;;;;;;5.50;1.83;;;17.10;84.70;;;;;;6221737;23;20212;-78
2021/07/14 04:53:38;;;;;;;6.25;2.25;;;17.10;85.00;;;;;;6220095;23;20040;-77
2021/07/14 04:56:06;;;;;;;3.67;1.73;;;17.10;85.00;;;;;;6219196;23;20142;-78
2021/07/14 04:58:34;;;;;;;3.15;1.55;;;17.10;84.80;;;;;;6223864;23;20024;-77
2021/07/14 05:01:01;;;;;;;3.88;1.65;;;17.10;84.80;;;;;;6219302;23;20020;-77
2021/07/14 05:03:30;;;;;;;4.10;2.08;;;17.10;84.70;;;;;;6244980;22;20032;-77
2021/07/14 05:05:57;;;;;;;3.22;1.63;;;17.10;84.50;;;;;;6219364;23;20324;-77
2021/07/14 05:08:24;;;;;;;4.20;1.98;;;17.10;84.90;;;;;;6220127;23;20332;-78
2021/07/14 05:10:52;;;;;;;3.63;1.83;;;17.00;85.00;;;;;;6219936;23;20026;-77
2021/07/14 05:13:19;;;;;;;4.93;1.48;;;17.10;84.80;;;;;;6222436;23;20031;-77
2021/07/14 05:15:48;;;;;;;3.15;1.83;;;17.00;85.10;;;;;;6218355;23;20025;-77
2021/07/14 05:18:15;;;;;;;7.75;2.97;;;17.00;85.20;;;;;;6215493;23;20029;-77
2021/07/14 05:20:43;;;;;;;3.83;2.10;;;17.00;85.40;;;;;;6218905;23;20035;-77
2021/07/14 05:23:10;;;;;;;3.45;1.88;;;17.00;85.20;;;;;;6218279;23;20017;-77
2021/07/14 05:25:37;;;;;;;3.72;2.00;;;17.00;85.20;;;;;;6218607;23;20024;-77
2021/07/14 05:28:07;;;;;;;6.40;2.65;;;16.90;85.50;;;;;;6221981;23;20331;-77
2021/07/14 05:30:37;;;;;;;4.20;2.10;;;17.00;85.80;;;;;;6249488;23;20024;-77
2021/07/14 05:33:06;;;;;;;4.32;2.78;;;17.10;85.90;;;;;;6247325;23;20024;-77
2021/07/14 05:35:34;;;;;;;4.00;2.20;;;17.00;85.40;;;;;;6247347;23;20024;-77
2021/07/14 05:38:01;;;;;;;3.90;1.92;;;17.00;85.60;;;;;;6221664;23;20088;-77
2021/07/14 05:40:35;;;;;;;3.90;1.80;;;17.00;85.50;;;;;;6226241;23;20055;-77
2021/07/14 05:43:02;;;;;;;3.72;2.22;;;17.10;85.10;;;;;;6249181;23;20028;-77
2021/07/14 05:45:30;;;;;;;4.22;2.30;;;17.10;85.50;;;;;;6250534;23;20016;-77
2021/07/14 05:47:57;;;;;;;4.65;2.05;;;17.10;85.60;;;;;;6249512;23;20031;-78
2021/07/14 05:50:27;;;;;;;5.75;2.58;;;17.10;85.10;;;;;;6251045;23;20039;-78
2021/07/14 05:52:54;;;;;;;4.97;2.25;;;17.10;85.30;;;;;;6250174;23;20086;-78
2021/07/14 05:55:21;;;;;;;5.05;2.35;;;17.10;85.50;;;;;;6246206;23;20028;-78
2021/07/14 05:57:51;;;;;;;4.78;2.10;;;17.10;85.40;;;;;;6222694;23;20035;-77
2021/07/14 06:00:19;;;;;;;4.22;2.45;;;17.10;85.40;;;;;;6244557;23;20361;-78
2021/07/14 06:02:46;;;;;;;5.32;2.40;;;17.30;85.00;;;;;;6216678;23;20035;-76
2021/07/14 06:05:14;;;;;;;6.72;2.40;;;17.30;85.40;;;;;;6244627;23;20046;-76
2021/07/14 06:07:48;;;;;;;5.18;2.58;;;17.20;85.20;;;;;;6219820;23;20028;-77
2021/07/14 06:10:15;;;;;;;3.83;2.22;;;17.20;85.50;;;;;;6246869;23;20024;-78
2021/07/14 06:12:42;;;;;;;5.72;2.22;;;17.20;85.40;;;;;;6245616;23;20053;-76
2021/07/14 06:15:10;;;;;;;3.88;2.08;;;17.10;85.90;;;;;;6240899;23;20031;-77
2021/07/14 06:17:38;;;;;;;5.95;2.45;;;17.10;85.60;;;;;;6246430;23;20020;-77
2021/07/14 06:20:07;;;;;;;5.78;2.55;;;17.20;85.60;;;;;;6244899;23;20223;-76
2021/07/14 06:22:36;;;;;;;4.40;2.13;;;17.20;85.50;;;;;;6218839;23;20082;-76
2021/07/14 06:25:09;;;;;;;5.07;2.20;;;17.30;85.30;;;;;;6222043;23;20339;-76
2021/07/14 06:27:36;;;;;;;6.82;2.15;;;17.30;85.40;;;;;;6242569;23;20087;-76
2021/07/14 06:30:09;;;;;;;3.72;1.98;;;17.20;85.30;;;;;;6243938;23;20231;-75
2021/07/14 06:32:36;;;;;;;4.70;1.92;;;17.40;84.70;;;;;;6245625;23;20028;-76
2021/07/14 06:35:04;;;;;;;5.40;2.05;;;17.30;85.10;;;;;;6221012;23;20108;-76
2021/07/14 06:37:32;;;;;;;4.78;2.28;;;17.20;84.60;;;;;;6245886;23;20320;-76
2021/07/14 06:39:59;;;;;;;5.38;1.73;;;17.30;84.80;;;;;;6247329;23;20218;-76
2021/07/14 06:42:29;;;;;;;3.05;1.63;;;17.60;84.20;;;;;;6222894;23;20044;-76
2021/07/14 06:44:58;;;;;;;4.70;2.03;;;17.70;83.60;;;;;;6221100;23;20092;-76
2021/07/14 06:47:25;;;;;;;4.25;2.03;;;17.80;82.80;;;;;;6251330;23;20027;-77
2021/07/14 06:49:52;;;;;;;4.28;2.00;;;17.80;82.70;;;;;;6248761;23;20028;-76
2021/07/14 06:52:19;;;;;;;4.68;2.05;;;17.90;82.10;;;;;;6250336;23;20055;-76
2021/07/14 06:54:47;;;;;;;3.92;1.80;;;17.80;81.70;;;;;;6248985;23;20051;-76
2021/07/14 06:57:14;;;;;;;3.88;1.67;;;17.90;81.80;;;;;;6248653;23;20019;-75
2021/07/14 06:59:44;;;;;;;5.32;1.88;;;18.00;81.70;;;;;;6250179;23;20040;-76
2021/07/14 07:02:11;;;;;;;3.00;1.88;;;18.00;81.40;;;;;;6243572;23;20342;-76
2021/07/14 07:04:38;;;;;;;3.53;1.55;;;18.00;81.40;;;;;;6222227;23;20028;-76
2021/07/14 07:07:06;;;;;;;3.10;1.60;;;18.00;81.10;;;;;;6247592;23;20012;-76
2021/07/14 07:09:33;;;;;;;4.00;1.70;;;17.90;81.60;;;;;;6222350;23;20034;-76
2021/07/14 07:12:00;;;;;;;3.70;1.63;;;17.80;81.80;;;;;;6249922;23;20208;-76
2021/07/14 07:14:30;;;;;;;3.10;1.80;;;17.90;81.60;;;;;;6246679;23;20050;-75
2021/07/14 07:16:58;;;;;;;2.63;1.27;;;17.80;81.60;;;;;;6250169;23;20387;-75
2021/07/14 07:19:25;;;;;;;2.35;1.40;;;17.70;81.80;;;;;;6250609;23;20043;-76
2021/07/14 07:21:53;;;;;;;3.25;1.60;;;17.90;81.60;;;;;;6221540;23;20028;-76
2021/07/14 07:24:20;;;;;;;2.92;1.60;;;17.80;81.50;;;;;;6248770;23;20047;-76
2021/07/14 07:26:47;;;;;;;3.50;1.83;;;17.80;81.70;;;;;;6241801;23;20265;-76
2021/07/14 07:29:15;;;;;;;4.95;1.67;;;17.80;81.40;;;;;;6219671;23;20024;-76
2021/07/14 07:31:43;;;;;;;2.20;1.33;;;17.90;82.10;;;;;;6219004;23;20027;-75
2021/07/14 07:34:12;;;;;;;3.28;1.60;;;17.90;81.30;;;;;;6218267;23;20024;-76
2021/07/14 07:36:40;;;;;;;3.28;1.60;;;18.00;80.70;;;;;;6219617;23;20509;-75
2021/07/14 07:39:07;;;;;;;2.30;1.30;;;17.90;80.40;;;;;;6243347;22;20235;-75
2021/07/14 07:41:35;;;;;;;4.95;1.35;;;17.90;80.70;;;;;;6215074;23;20035;-76
2021/07/14 07:44:03;;;;;;;4.30;1.73;;;17.90;79.90;;;;;;6216934;23;20016;-76
2021/07/14 07:46:30;;;;;;;2.75;1.20;;;18.00;80.20;;;;;;6216289;23;20320;-76
2021/07/14 07:48:57;;;;;;;3.63;1.67;;;17.90;80.10;;;;;;6217552;23;20024;-75
2021/07/14 07:51:26;;;;;;;3.38;1.70;;;18.00;79.90;;;;;;6213716;23;20052;-75
2021/07/14 07:53:53;;;;;;;2.85;1.45;;;18.20;79.70;;;;;;6215810;23;20040;-76
2021/07/14 07:56:21;;;;;;;4.72;1.42;;;18.10;79.30;;;;;;6217286;23;20021;-76
2021/07/14 07:58:48;;;;;;;2.15;1.23;;;18.10;78.90;;;;;;6213796;23;20025;-76
2021/07/14 08:01:15;;;;;;;3.85;1.63;;;18.10;78.70;;;;;;6212054;23;20032;-75
2021/07/14 08:03:42;;;;;;;2.63;1.40;;;18.10;79.40;;;;;;6215939;23;20029;-75
2021/07/14 08:06:10;;;;;;;3.80;1.45;;;18.20;79.30;;;;;;6212141;23;20328;-75
2021/07/14 08:08:38;;;;;;;2.28;1.25;;;18.10;79.40;;;;;;6215148;23;20220;-76
2021/07/14 08:11:08;;;;;;;3.28;1.33;;;18.20;79.40;;;;;;6214695;23;20025;-76
2021/07/14 08:13:35;;;;;;;4.55;1.40;;;18.20;79.00;;;;;;6216522;23;20036;-75
2021/07/14 08:16:02;;;;;;;2.17;1.15;;;18.10;79.70;;;;;;6217059;23;20058;-75
2021/07/14 08:18:30;;;;;;;2.20;1.30;;;18.20;79.70;;;;;;6216637;23;20033;-75
2021/07/14 08:20:58;;;;;;;6.68;1.42;;;18.20;79.80;;;;;;6214533;23;20301;-74
2021/07/14 08:23:26;;;;;;;3.22;1.30;;;18.20;79.50;;;;;;6212127;23;20032;-75
2021/07/14 08:25:54;;;;;;;2.47;1.30;;;18.10;79.60;;;;;;6221340;23;20043;-75
2021/07/14 08:28:23;;;;;;;4.90;1.27;;;18.00;80.10;;;;;;6246651;23;20023;-76
2021/07/14 08:30:50;;;;;;;3.67;1.67;;;18.00;80.30;;;;;;6248575;23;20040;-76
2021/07/14 08:33:18;;;;;;;5.07;1.30;;;17.90;80.50;;;;;;6248687;23;20031;-76
2021/07/14 08:35:45;;;;;;;3.42;1.45;;;17.90;80.70;;;;;;6250176;23;20263;-76
2021/07/14 08:38:12;;;;;;;3.67;1.50;;;17.90;81.00;;;;;;6248958;23;20035;-76
2021/07/14 08:40:40;;;;;;;3.13;1.52;;;17.90;81.10;;;;;;6248544;23;20446;-76
2021/07/14 08:43:11;;;;;;;5.70;1.55;;;17.90;81.30;;;;;;6220058;23;20028;-75
2021/07/14 08:45:38;;;;;;;3.67;1.63;;;17.90;81.20;;;;;;6248775;23;20264;-76
2021/07/14 08:48:08;;;;;;;3.78;1.70;;;17.90;81.50;;;;;;6247223;23;20107;-76
2021/07/14 08:50:42;;;;;;;3.40;1.83;;;17.90;82.00;;;;;;6247813;23;20024;-75
2021/07/14 08:53:15;;;;;;;2.85;1.50;;;17.70;81.90;;;;;;6222216;23;20028;-76
2021/07/14 08:55:43;;;;;;;3.78;1.65;;;17.60;82.60;;;;;;6248463;23;20022;-76
2021/07/14 08:58:13;;;;;;;4.22;2.17;;;17.60;82.80;;;;;;6221828;23;20208;-75
2021/07/14 09:00:41;;;;;;;3.27;1.70;;;17.60;83.30;;;;;;6216928;23;20028;-76
2021/07/14 09:03:08;;;;;;;4.28;2.10;;;17.70;83.60;;;;;;6245573;23;20395;-76
2021/07/14 09:05:35;;;;;;;8.90;1.63;;;17.80;83.80;;;;;;6243484;23;20228;-76
2021/07/14 09:08:03;;;;;;;3.42;1.65;;;17.90;83.00;;;;;;6247107;23;20020;-76
2021/07/14 09:10:37;;;;;;;3.90;1.75;;;17.80;82.90;;;;;;6248108;23;20271;-76
2021/07/14 09:13:05;;;;;;;2.67;1.25;;;18.00;82.80;;;;;;6247425;23;20024;-76
2021/07/14 09:15:41;;;;;;;3.38;2.15;;;17.90;82.80;;;;;;6246013;23;20331;-76
2021/07/14 09:18:09;;;;;;;4.43;2.65;;;17.60;84.00;;;;;;6248625;23;20042;-76
2021/07/14 09:20:40;;;;;;;4.18;2.25;;;17.40;85.60;;;;;;6249510;23;20365;-76
2021/07/14 09:23:10;;;;;;;3.58;2.08;;;17.30;86.00;;;;;;6250105;23;20046;-76
2021/07/14 09:25:39;;;;;;;;;;;17.10;86.90;;;;;;6226084;23;20055;-76
2021/07/14 09:28:07;;;;;;;3.45;2.00;;;17.10;87.50;;;;;;6250959;23;19918;-76
2021/07/14 09:30:38;;;;;;;6.55;2.58;;;17.00;88.20;;;;;;6248889;23;20070;-78
2021/07/14 09:33:06;;;;;;;5.47;3.13;;;17.10;87.70;;;;;;6248764;23;20024;-75
2021/07/14 09:35:37;;;;;;;5.60;3.10;;;17.10;88.00;;;;;;6220243;23;20028;-75
2021/07/14 09:38:09;;;;;;;6.68;3.22;;;17.30;88.20;;;;;;6222281;23;20054;-76
2021/07/14 09:40:37;;;;;;;4.90;2.40;;;17.30;87.20;;;;;;6246083;23;20072;-74
2021/07/14 09:43:08;;;;;;;5.75;2.22;;;17.10;87.90;;;;;;6246657;23;20054;-75
2021/07/14 09:45:48;;;;;;;5.80;2.38;;;17.40;87.70;;;;;;6247242;23;20031;-75
2021/07/14 09:48:18;;;;;;;6.43;2.65;;;17.60;86.50;;;;;;6247512;23;20080;-74
2021/07/14 09:50:48;;;;;;;6.72;3.08;;;17.70;87.00;;;;;;6249920;23;20047;-75
2021/07/14 09:53:19;;;;;;;4.00;2.10;;;17.80;86.80;;;;;;6248665;23;20070;-75
2021/07/14 09:55:48;;;;;;;5.05;2.10;;;17.70;85.80;;;;;;6246115;23;20083;-75
2021/07/14 09:58:17;;;;;;;4.93;2.25;;;17.80;86.20;;;;;;6249250;23;20023;-76
2021/07/14 10:00:49;;;;;;;4.37;1.80;;;17.80;85.80;;;;;;6237587;23;20601;-75
2021/07/14 10:03:29;;;;;;;3.35;1.95;;;17.80;85.40;;;;;;6245347;23;20040;-76
2021/07/14 10:06:11;;;;;;;;;;;17.90;84.40;;;;;;6248250;23;20023;-76
2021/07/14 10:08:39;;;;;;;2.42;1.50;;;17.80;85.20;;;;;;6245830;23;19953;-76
2021/07/14 10:11:15;;;;;;;3.63;1.80;;;17.70;84.80;;;;;;6247899;23;20040;-76
2021/07/14 10:13:52;;;;;;;4.75;2.20;;;17.70;85.10;;;;;;6250911;23;20499;-76
2021/07/14 10:16:22;;;;;;;3.28;1.80;;;17.70;84.90;;;;;;6251652;23;20024;-76
2021/07/14 10:19:07;;;;;;;3.03;2.00;;;17.70;84.60;;;;;;6252085;23;20039;-76
2021/07/14 10:21:42;;;;;;;5.82;1.90;;;17.60;85.20;;;;;;6226352;23;20028;-76
2021/07/14 10:24:12;;;;;;;2.65;1.55;;;17.70;85.00;;;;;;6253678;23;20062;-75
2021/07/14 10:26:44;;;;;;;3.88;2.05;;;17.70;85.50;;;;;;6253291;23;20035;-75
2021/07/14 10:29:11;;;;;;;4.05;1.50;;;17.70;85.30;;;;;;6253722;23;20024;-76
2021/07/14 10:31:40;;;;;;;3.63;1.85;;;17.90;84.70;;;;;;6255262;23;20016;-76
2021/07/14 10:34:09;;;;;;;3.17;1.97;;;18.00;85.00;;;;;;6227210;23;20028;-76
2021/07/14 10:36:39;;;;;;;4.05;1.95;;;18.00;84.60;;;;;;6254444;23;20016;-76
2021/07/14 10:39:08;;;;;;;4.07;2.05;;;18.00;83.30;;;;;;6225116;23;20032;-75
2021/07/14 10:41:36;;;;;;;4.10;2.08;;;18.00;83.50;;;;;;6253014;23;20024;-76
2021/07/14 10:44:05;;;;;;;5.32;2.20;;;18.10;84.00;;;;;;6251924;23;20024;-76
2021/07/14 10:46:32;;;;;;;4.57;1.95;;;18.20;83.20;;;;;;6221200;23;20099;-76
2021/07/14 10:49:04;;;;;;;4.18;2.00;;;18.10;83.50;;;;;;6252484;23;20044;-76
2021/07/14 10:51:34;;;;;;;3.80;1.80;;;18.10;84.30;;;;;;6252337;23;20023;-76
2021/07/14 10:54:04;;;;;;;4.40;1.90;;;18.20;83.70;;;;;;6252331;23;20488;-76
2021/07/14 10:56:35;;;;;;;3.47;1.80;;;18.10;83.90;;;;;;6250161;22;20096;-76
2021/07/14 10:59:03;;;;;;;4.53;2.28;;;18.00;84.20;;;;;;6251692;23;20020;-76
2021/07/14 11:01:41;;;;;;;3.30;1.90;;;17.90;84.10;;;;;;6245310;23;20023;-76
2021/07/14 11:04:14;;;;;;;6.05;2.33;;;18.00;84.20;;;;;;6251795;23;20024;-75
2021/07/14 11:06:55;;;;;;;3.50;1.73;;;17.80;84.20;;;;;;6250806;23;20074;-75
2021/07/14 11:09:32;;;;;;;4.70;1.98;;;17.60;84.70;;;;;;6251245;23;20024;-75
2021/07/14 11:12:01;;;;;;;4.30;2.17;;;17.70;84.90;;;;;;6252230;23;20024;-76
2021/07/14 11:14:35;;;;;;;6.57;2.22;;;17.70;85.70;;;;;;6252448;23;20015;-75
2021/07/14 11:17:03;;;;;;;6.13;2.78;;;17.70;84.90;;;;;;6250188;23;20224;-76
2021/07/14 11:19:46;;;;;;;6.95;3.40;;;17.70;85.40;;;;;;6249162;23;20016;-76
2021/07/14 11:22:14;;;;;;;4.28;2.47;;;17.80;85.70;;;;;;6218695;23;20028;-76
2021/07/14 11:24:55;;;;;;;4.03;2.17;;;17.90;85.50;;;;;;6247459;23;20023;-75
2021/07/14 11:27:47;;;;;;;4.53;2.50;;;17.70;85.50;;;;;;6219386;23;20232;-76
2021/07/14 11:30:24;;;;;;;4.70;2.45;;;17.80;85.90;;;;;;6247457;23;20031;-76
2021/07/14 11:32:56;;;;;;;4.93;2.85;;;17.70;86.50;;;;;;6248063;23;20224;-76
2021/07/14 11:35:34;;;;;;;4.55;2.60;;;17.90;85.80;;;;;;6248637;23;20024;-76
2021/07/14 11:38:04;;;;;;;5.40;2.45;;;17.90;85.10;;;;;;6247504;23;20072;-76
2021/07/14 11:40:40;;;;;;;4.47;2.35;;;18.10;85.10;;;;;;6216361;23;20020;-75
2021/07/14 11:43:44;;;;;;;3.55;2.17;;;18.40;85.20;;;;;;6244230;23;20032;-75
2021/07/14 11:46:15;;;;;;;3.60;2.08;;;18.60;83.90;;;;;;6215240;23;20028;-76
2021/07/14 11:48:43;;;;;;;4.45;2.60;;;18.70;83.10;;;;;;6247817;23;20026;-76
2021/07/14 11:51:22;;;;;;;4.72;2.58;;;19.00;83.00;;;;;;6220269;23;20027;-76
2021/07/14 11:53:52;;;;;;;4.45;2.05;;;19.30;82.80;;;;;;6219722;23;20028;-76
2021/07/14 11:56:22;;;;;;;4.27;2.20;;;19.50;81.90;;;;;;6243670;23;20212;-76
2021/07/14 11:59:08;;;;;;;4.80;2.13;;;19.80;80.60;;;;;;6245979;23;20040;-76
2021/07/14 12:02:07;;;;;;;7.90;2.60;;;19.80;79.10;;;;;;6240386;23;20220;-77
2021/07/14 12:04:40;;;;;;;4.32;2.45;;;20.20;79.90;;;;;;6246133;23;20131;-75
2021/07/14 12:07:12;;;;;;;5.05;2.33;;;20.40;78.90;;;;;;6246004;23;20035;-76
2021/07/14 12:09:50;;;;;;;2.97;1.70;;;21.60;74.90;;;;;;6247055;23;20028;-76
2021/07/14 12:12:23;;;;;;;3.58;1.65;;;21.20;75.10;;;;;;6222090;23;20020;-76
2021/07/14 12:14:51;;;;;;;3.50;1.67;;;21.50;73.30;;;;;;6248892;23;20047;-76
2021/07/14 12:17:20;;;;;;;3.28;1.67;;;23.00;70.70;;;;;;6222085;23;20028;-76
2021/07/14 12:19:48;;;;;;;3.28;1.63;;;23.20;68.00;;;;;;6249053;23;20024;-76
2021/07/14 12:22:19;;;;;;;1.80;1.00;;;23.60;67.90;;;;;;6247566;23;20287;-76
2021/07/14 12:24:49;;;;;;;2.63;1.50;;;23.20;68.40;;;;;;6223038;23;20320;-77
2021/07/14 12:27:21;;;;;;;2.17;1.40;;;22.90;68.90;;;;;;6220917;23;20312;-76
2021/07/14 12:29:52;;;;;;;2.45;1.42;;;23.00;66.10;;;;;;6249084;23;20076;-76
2021/07/14 12:32:36;;;;;;;2.60;1.42;;;23.60;67.30;;;;;;6248303;23;20016;-75
2021/07/14 12:35:07;;;;;;;3.22;1.40;;;23.10;66.40;;;;;;6220948;23;20031;-76
2021/07/14 12:37:40;;;;;;;2.10;1.10;;;23.60;66.00;;;;;;6220859;23;20024;-76
2021/07/14 12:40:09;;;;;;;2.40;1.30;;;24.20;62.80;;;;;;6248394;23;20016;-76
2021/07/14 12:42:36;;;;;;;6.95;1.38;;;23.40;64.60;;;;;;6246160;23;20035;-76
2021/07/14 12:45:05;;;;;;;2.58;1.55;;;23.00;67.60;;;;;;6246673;23;20031;-76
2021/07/14 12:47:40;;;;;;;2.33;1.30;;;22.60;69.10;;;;;;6219103;23;20020;-76
2021/07/14 12:50:08;;;;;;;2.42;1.38;;;22.20;68.30;;;;;;6247787;23;20047;-75
2021/07/14 12:52:38;;;;;;;4.30;1.42;;;21.30;70.80;;;;;;6225150;23;20224;-76
2021/07/14 12:55:06;;;;;;;2.50;1.30;;;21.20;72.10;;;;;;6249083;23;20031;-76
2021/07/14 12:57:39;;;;;;;2.90;1.40;;;21.10;72.20;;;;;;6249633;23;20020;-77
2021/07/14 13:00:08;;;;;;;4.20;1.20;;;21.00;72.90;;;;;;6243996;23;20366;-76
2021/07/14 13:02:39;;;;;;;3.15;1.15;;;21.40;71.90;;;;;;6249334;23;20304;-76
2021/07/14 13:05:12;;;;;;;2.13;1.20;;;21.10;72.70;;;;;;6245885;23;20024;-76
2021/07/14 13:07:47;;;;;;;1.67;0.82;;;20.90;73.00;;;;;;6246771;23;20016;-76
2021/07/14 13:10:17;;;;;;;2.33;1.30;;;20.80;73.10;;;;;;6246161;23;20016;-76
2021/07/14 13:12:47;;;;;;;2.35;1.17;;;20.60;74.20;;;;;;6220954;23;20028;-76